Weather at Musquodoboit Valley Memorial Hospital Heliport

Public forecast

Using degrees Celsius for public forecast. Weather courtesy of forecast.io.

Closest aviation weather report (METAR) to Musquodoboit Valley Memorial Hospital Heliport

Closest report is Halifax / Stanfield International Airport, 18.3 nm (33.9 km) WSW.

2024/04/22 12:00 (retrieved 58 minutes ago)

CYHZ 221200Z 25011KT 15SM FEW022 FEW040 FEW070 06/02 A2975 RMK CF1SC1AC1 CF TR SC TR AC TR SLP080

Closest aviation forecast (TAF) to Musquodoboit Valley Memorial Hospital Heliport

Closest forecast is Halifax / Stanfield International Airport, 18.3 nm (33.9 km) WSW.

2024/04/22 12:42 (retrieved 16 minutes ago)

TAF CYHZ 221140Z 2212/2312 23008KT P6SM SCT012 BECMG 2213/2215 27010G20KT FM221500 27010G20KT P6SM SCT050 TEMPO 2215/2218 BKN050 FM222000 30010G20KT P6SM SKC BECMG 2222/2224 31008KT BECMG 2306/2308 VRB03KT RMK NXT FCST BY 221500Z